createdAt,value
2019-06-15T00:03:41.363Z,23.8
2019-06-15T00:08:43.814Z,23.9
2019-06-15T00:13:46.271Z,24
2019-06-15T00:18:48.734Z,24
2019-06-15T00:23:51.237Z,24
2019-06-15T00:28:53.667Z,23.9
2019-06-15T00:33:56.153Z,23.9
2019-06-15T00:38:58.708Z,23.9
2019-06-15T00:44:01.030Z,23.9
2019-06-15T00:49:03.479Z,23.7
2019-06-15T00:54:06.024Z,23.7
2019-06-15T00:59:08.455Z,23.6
2019-06-15T01:04:10.904Z,23.6
2019-06-15T01:09:13.347Z,23.6
2019-06-15T01:14:15.763Z,23.5
2019-06-15T01:19:18.242Z,23.5
2019-06-15T01:24:20.672Z,23.5
2019-06-15T01:29:23.226Z,23.5
2019-06-15T01:34:25.603Z,23.4
2019-06-15T01:39:28.058Z,23.4
2019-06-15T01:44:30.530Z,23.3
2019-06-15T01:49:33.028Z,23.4
2019-06-15T01:54:35.442Z,23.3
2019-06-15T01:59:38.169Z,23.3
2019-06-15T02:04:40.370Z,23.3
2019-06-15T02:09:42.824Z,23.2
2019-06-15T02:14:45.283Z,23.1
2019-06-15T02:19:47.774Z,23.1
2019-06-15T02:24:50.188Z,23
2019-06-15T02:29:52.792Z,23
2019-06-15T02:34:55.119Z,22.9
2019-06-15T02:39:57.548Z,22.8
2019-06-15T02:45:00.021Z,22.7
2019-06-15T02:50:02.489Z,22.6
2019-06-15T02:55:04.951Z,22.5
2019-06-15T03:00:07.419Z,22.5
2019-06-15T03:05:09.863Z,22.4
2019-06-15T03:10:12.317Z,22.3
2019-06-15T03:15:14.805Z,22.3
2019-06-15T03:20:17.258Z,22.2
2019-06-15T03:25:19.905Z,22.2
2019-06-15T03:30:22.193Z,22.1
2019-06-15T03:35:24.676Z,22.1
2019-06-15T03:40:27.086Z,22.1
2019-06-15T03:45:29.531Z,22
2019-06-15T03:50:32.001Z,22
2019-06-15T03:55:34.436Z,22
2019-06-15T04:00:37.087Z,22
2019-06-15T04:05:39.400Z,22
2019-06-15T04:10:41.833Z,22.1
2019-06-15T04:15:44.270Z,22.2
2019-06-15T04:20:46.850Z,22.1
2019-06-15T04:25:49.296Z,22.2
2019-06-15T04:30:51.696Z,22.3
2019-06-15T04:35:54.250Z,22.5
2019-06-15T04:40:56.577Z,22.8
2019-06-15T04:45:59.055Z,23.1
2019-06-15T04:51:01.513Z,23.5
2019-06-15T04:56:03.955Z,23.7
2019-06-15T05:01:06.426Z,23.9
2019-06-15T05:06:08.909Z,23.8
2019-06-15T05:11:11.386Z,23.8
2019-06-15T05:16:13.802Z,23.8
2019-06-15T05:21:16.292Z,23.8
2019-06-15T05:26:18.718Z,23.9
2019-06-15T05:31:21.330Z,24.2
2019-06-15T05:36:23.619Z,24.1
2019-06-15T05:41:26.191Z,24.3
2019-06-15T05:46:28.638Z,24.6
2019-06-15T05:51:31.039Z,25
2019-06-15T05:56:33.628Z,25.1
2019-06-15T06:01:36.033Z,25.4
2019-06-15T06:06:38.573Z,25.9
2019-06-15T06:11:40.837Z,26.3
2019-06-15T06:16:43.306Z,26.6
2019-06-15T06:21:45.758Z,26.7
2019-06-15T06:26:48.227Z,27.1
2019-06-15T06:31:50.772Z,28.2
2019-06-15T06:36:53.169Z,29
2019-06-15T06:41:55.616Z,28.7
2019-06-15T06:46:58.112Z,28.2
2019-06-15T06:52:00.583Z,28.2
2019-06-15T06:57:02.957Z,28.3
2019-06-15T07:02:05.481Z,27.8
2019-06-15T07:07:07.943Z,27.2
2019-06-15T07:12:10.350Z,26.8
2019-06-15T07:17:12.832Z,27.3
2019-06-15T07:22:15.473Z,28.6
2019-06-15T07:27:17.747Z,30.5
2019-06-15T07:32:20.265Z,33.3
2019-06-15T07:37:22.763Z,36.3
2019-06-15T07:42:25.091Z,38.3
2019-06-15T07:47:27.682Z,39.9
2019-06-15T07:52:30.058Z,41.7
2019-06-15T07:57:32.525Z,42
2019-06-15T08:02:35.146Z,40.1
2019-06-15T08:07:37.541Z,39.5
2019-06-15T08:12:39.985Z,39.4
2019-06-15T08:17:45.332Z,39.1
2019-06-15T08:22:44.985Z,38
2019-06-15T08:32:49.737Z,36.2
2019-06-15T08:37:52.317Z,34.8
2019-06-15T08:42:54.719Z,33.8
2019-06-15T08:47:57.097Z,33
2019-06-15T08:52:59.568Z,32.9
2019-06-15T08:58:02.093Z,32.9
2019-06-15T09:03:04.479Z,33
2019-06-15T09:08:07.077Z,32.9
2019-06-15T09:13:09.846Z,33.1
2019-06-15T09:18:11.911Z,34.1
2019-06-15T09:23:14.388Z,35.6
2019-06-15T09:28:16.944Z,36.1
2019-06-15T09:33:19.274Z,36.3
2019-06-15T09:38:21.747Z,37.8
2019-06-15T09:43:24.182Z,38.2
2019-06-15T09:48:26.735Z,39.6
2019-06-15T09:53:29.093Z,40.6
2019-06-15T09:58:31.574Z,40.5
2019-06-15T10:03:34.129Z,41.6
2019-06-15T10:08:36.512Z,42.9
2019-06-15T10:13:38.967Z,43.8
2019-06-15T10:18:41.423Z,43.7
2019-06-15T10:23:44.036Z,43.1
2019-06-15T10:28:46.365Z,42.3
2019-06-15T10:33:48.819Z,41.7
2019-06-15T10:38:51.343Z,42.5
2019-06-15T10:43:53.773Z,43.6
2019-06-15T10:48:56.224Z,43.3
2019-06-15T10:53:59.871Z,42.8
2019-06-15T10:59:02.938Z,41.8
2019-06-15T11:04:03.637Z,40.9
2019-06-15T11:09:06.415Z,39.8
2019-06-15T11:14:08.616Z,41
2019-06-15T11:19:11.045Z,43.6
2019-06-15T11:24:13.515Z,44.6
2019-06-15T11:29:15.973Z,45.5
2019-06-15T11:34:18.483Z,47
2019-06-15T11:39:20.903Z,47.1
2019-06-15T11:44:23.471Z,45.4
2019-06-15T11:49:25.826Z,42.2
2019-06-15T11:54:28.405Z,39.1
2019-06-15T11:59:30.757Z,37.2
2019-06-15T12:04:33.220Z,36
2019-06-15T12:09:35.742Z,35.4
2019-06-15T12:14:38.208Z,34.9
2019-06-15T12:19:40.605Z,36.2
2019-06-15T12:24:43.126Z,37.7
2019-06-15T12:34:48.032Z,38
2019-06-15T12:39:50.441Z,37.8
2019-06-15T12:44:52.895Z,38.8
2019-06-15T12:49:55.353Z,39.5
2019-06-15T12:54:58.453Z,40.6
2019-06-15T13:00:00.275Z,40.2
2019-06-15T13:05:02.733Z,39.2
2019-06-15T13:10:05.218Z,37.9
2019-06-15T13:15:07.734Z,36.4
2019-06-15T13:20:10.246Z,35.2
2019-06-15T13:25:12.647Z,34.1
2019-06-15T13:30:15.097Z,33.4
2019-06-15T13:35:17.600Z,33
2019-06-15T13:40:19.958Z,32.6
2019-06-15T13:45:22.450Z,32.4
2019-06-15T13:50:24.890Z,32.1
2019-06-15T13:55:27.424Z,31.9
2019-06-15T14:00:29.806Z,31.9
2019-06-15T14:05:32.287Z,32
2019-06-15T14:10:34.767Z,32.4
2019-06-15T14:15:37.276Z,33
2019-06-15T14:20:40.093Z,33
2019-06-15T14:25:42.174Z,32.9
2019-06-15T14:30:44.553Z,32.8
2019-06-15T14:35:47.121Z,32.4
2019-06-15T14:40:49.513Z,31.9
2019-06-15T14:45:59.221Z,31.5
2019-06-15T14:50:54.558Z,31.3
2019-06-15T14:55:56.889Z,30.9
2019-06-15T15:00:59.317Z,30.9
2019-06-15T15:06:01.778Z,30.7
2019-06-15T15:11:06.445Z,30.3
2019-06-15T15:16:07.137Z,29.9
2019-06-15T15:21:09.182Z,29.6
2019-06-15T15:26:11.654Z,29.1
2019-06-15T15:31:16.863Z,28.7
2019-06-15T15:36:16.965Z,28.5
2019-06-15T15:41:19.064Z,28.4
2019-06-15T15:46:21.482Z,28.5
2019-06-15T15:51:26.006Z,28.6
2019-06-15T15:56:27.197Z,28.7
2019-06-15T16:01:28.960Z,28.6
2019-06-15T16:06:31.293Z,28.5
2019-06-15T16:11:33.791Z,28.4
2019-06-15T16:16:36.641Z,28.3
2019-06-15T16:21:38.683Z,28.1
2019-06-15T16:26:41.145Z,27.8
2019-06-15T16:36:46.933Z,27.5
2019-06-15T16:41:48.571Z,27.6
2019-06-15T16:46:51.037Z,27.4
2019-06-15T16:51:53.423Z,27.3
2019-06-15T16:56:55.923Z,27.3
2019-06-15T17:01:58.344Z,27.3
2019-06-15T17:07:00.805Z,27.2
2019-06-15T17:12:03.293Z,27.3
2019-06-15T17:17:05.799Z,27.2
2019-06-15T17:22:18.501Z,27.1
2019-06-15T17:27:10.646Z,26.9
2019-06-15T17:32:13.114Z,26.8
2019-06-15T17:37:17.200Z,26.6
2019-06-15T17:42:18.043Z,26.4
2019-06-15T17:47:20.521Z,26.2
2019-06-15T17:52:23.034Z,26.1
2019-06-15T17:57:27.384Z,25.9
2019-06-15T18:02:27.860Z,25.8
2019-06-15T18:07:30.341Z,25.7
2019-06-15T18:12:32.791Z,25.7
2019-06-15T18:17:36.948Z,25.6
2019-06-15T18:22:37.697Z,25.6
2019-06-15T18:27:40.198Z,25.5
2019-06-15T18:32:43.514Z,25.3
2019-06-15T18:37:46.164Z,25.1
2019-06-15T18:42:47.531Z,25
2019-06-15T18:47:50.002Z,24.8
2019-06-15T18:52:52.442Z,24.6
2019-06-15T18:57:56.751Z,24.4
2019-06-15T19:02:57.423Z,24.2
2019-06-15T19:13:02.285Z,23.8
2019-06-15T19:18:07.018Z,23.6
2019-06-15T19:23:07.367Z,23.4
2019-06-15T19:28:09.741Z,23.3
2019-06-15T19:33:12.123Z,23.1
2019-06-15T19:38:16.126Z,23
2019-06-15T19:43:17.032Z,22.9
2019-06-15T19:48:19.492Z,22.8
2019-06-15T19:53:21.939Z,22.6
2019-06-15T19:58:26.370Z,22.5
2019-06-15T20:03:27.459Z,22.5
2019-06-15T20:08:29.329Z,22.5
2019-06-15T20:13:31.804Z,22.5
2019-06-15T20:18:37.240Z,22.4
2019-06-15T20:23:37.395Z,22.4
2019-06-15T20:28:39.181Z,22.3
2019-06-15T20:33:41.675Z,22.2
2019-06-15T20:43:46.547Z,22
2019-06-15T20:48:49.022Z,22
2019-06-15T20:53:51.467Z,21.9
2019-06-15T20:58:56.964Z,21.8
2019-06-15T21:03:56.679Z,21.7
2019-06-15T21:08:58.852Z,21.6
2019-06-15T21:14:01.315Z,21.4
2019-06-15T21:19:06.320Z,21.3
2019-06-15T21:24:06.575Z,21.3
2019-06-15T21:29:08.737Z,21.2
2019-06-15T21:34:11.140Z,21.1
2019-06-15T21:39:13.739Z,21
2019-06-15T21:44:16.746Z,20.9
2019-06-15T21:49:18.519Z,20.8
2019-06-15T21:54:21.039Z,20.8
2019-06-15T21:59:25.975Z,20.7
2019-06-15T22:04:26.024Z,20.7
2019-06-15T22:09:28.368Z,20.7
2019-06-15T22:14:30.858Z,20.8
2019-06-15T22:19:33.260Z,20.7
2019-06-15T22:24:36.245Z,20.7
2019-06-15T22:29:38.197Z,20.7
2019-06-15T22:34:40.631Z,20.7
2019-06-15T22:39:43.087Z,20.6
2019-06-15T22:44:46.380Z,20.5
2019-06-15T22:49:48.137Z,20.4
2019-06-15T22:54:50.471Z,20.4
2019-06-15T22:59:52.982Z,20.3
2019-06-15T23:09:57.867Z,20.1
2019-06-15T23:15:00.327Z,19.9
2019-06-15T23:20:02.771Z,19.7
2019-06-15T23:25:06.075Z,19.5
2019-06-15T23:30:07.667Z,19.3
2019-06-15T23:35:10.136Z,19.1
2019-06-15T23:40:12.597Z,19
2019-06-15T23:45:16.091Z,19
2019-06-15T23:50:17.529Z,18.9
2019-06-15T23:55:19.980Z,18.9
